createdAt,value
2018-03-06T00:00:15.899Z,3.61
2018-03-06T00:02:43.617Z,3.61
2018-03-06T00:05:11.320Z,3.70
2018-03-06T00:07:39.040Z,3.61
2018-03-06T00:10:06.748Z,3.43
2018-03-06T00:12:34.492Z,3.55
2018-03-06T00:15:02.213Z,3.51
2018-03-06T00:17:29.911Z,3.61
2018-03-06T00:19:57.627Z,3.73
2018-03-06T00:22:25.331Z,3.74
2018-03-06T00:24:53.079Z,3.78
2018-03-06T00:27:20.803Z,3.73
2018-03-06T00:29:48.500Z,3.71
2018-03-06T00:32:16.223Z,3.69
2018-03-06T00:34:43.920Z,3.55
2018-03-06T00:37:11.654Z,3.49
2018-03-06T00:39:39.398Z,3.54
2018-03-06T00:42:07.109Z,3.48
2018-03-06T00:44:34.833Z,3.34
2018-03-06T00:47:02.528Z,3.29
2018-03-06T00:49:30.368Z,3.36
2018-03-06T00:51:58.066Z,3.38
2018-03-06T00:54:25.764Z,3.30
2018-03-06T00:56:53.494Z,3.28
2018-03-06T00:59:21.191Z,3.29
2018-03-06T01:01:48.930Z,3.24
2018-03-06T01:04:16.634Z,3.22
2018-03-06T01:06:44.336Z,3.21
2018-03-06T01:09:12.059Z,3.13
2018-03-06T01:11:39.759Z,3.06
2018-03-06T01:14:08.476Z,3.04
2018-03-06T01:16:36.162Z,3.00
2018-03-06T01:19:03.867Z,3.02
2018-03-06T01:21:31.604Z,3.01
2018-03-06T01:23:59.311Z,3.13
2018-03-06T01:26:27.312Z,3.18
2018-03-06T01:28:55.012Z,3.12
2018-03-06T01:31:22.720Z,3.12
2018-03-06T01:33:50.455Z,3.16
2018-03-06T01:36:18.163Z,3.11
2018-03-06T01:38:46.130Z,3.17
2018-03-06T01:41:13.831Z,3.06
2018-03-06T01:43:41.619Z,3.10
2018-03-06T01:46:09.332Z,3.18
2018-03-06T01:48:37.059Z,3.28
2018-03-06T01:51:04.951Z,3.18
2018-03-06T01:53:32.651Z,3.13
2018-03-06T01:56:00.388Z,3.09
2018-03-06T01:58:28.086Z,3.00
2018-03-06T02:00:55.770Z,3.12
2018-03-06T02:03:23.495Z,3.27
2018-03-06T02:05:51.192Z,3.21
2018-03-06T02:08:18.898Z,3.28
2018-03-06T02:10:46.624Z,3.33
2018-03-06T02:13:14.326Z,3.37
2018-03-06T02:15:42.298Z,3.06
2018-03-06T02:18:09.996Z,3.18
2018-03-06T02:20:37.687Z,3.11
2018-03-06T02:23:05.417Z,3.28
2018-03-06T02:25:33.109Z,3.28
2018-03-06T02:28:00.849Z,3.29
2018-03-06T02:30:28.544Z,3.13
2018-03-06T02:32:56.240Z,3.27
2018-03-06T02:35:23.956Z,3.31
2018-03-06T02:37:51.682Z,3.27
2018-03-06T02:40:19.438Z,3.11
2018-03-06T02:42:47.136Z,3.17
2018-03-06T02:45:14.835Z,3.16
2018-03-06T02:47:42.539Z,3.09
2018-03-06T02:50:10.247Z,2.95
2018-03-06T02:52:38.266Z,2.90
2018-03-06T02:55:05.965Z,2.99
2018-03-06T02:57:33.656Z,2.98
2018-03-06T03:00:01.385Z,2.97
2018-03-06T03:02:29.089Z,3.00
2018-03-06T03:04:56.820Z,3.14
2018-03-06T03:07:24.514Z,3.16
2018-03-06T03:09:52.228Z,3.24
2018-03-06T03:12:19.943Z,3.16
2018-03-06T03:14:47.650Z,3.19
2018-03-06T03:17:15.596Z,3.13
2018-03-06T03:19:43.306Z,3.17
2018-03-06T03:22:11.015Z,3.21
2018-03-06T03:24:38.742Z,3.15
2018-03-06T03:27:06.441Z,3.23
2018-03-06T03:29:34.191Z,3.24
2018-03-06T03:32:01.895Z,3.23
2018-03-06T03:34:29.600Z,3.26
2018-03-06T03:36:57.319Z,3.40
2018-03-06T03:39:25.024Z,3.31
2018-03-06T03:41:53.147Z,3.33
2018-03-06T03:44:20.851Z,3.32
2018-03-06T03:46:48.548Z,3.27
2018-03-06T03:49:16.267Z,3.26
2018-03-06T03:51:43.971Z,3.26
2018-03-06T03:54:11.725Z,3.26
2018-03-06T03:56:39.424Z,3.31
2018-03-06T03:59:07.120Z,3.31
2018-03-06T04:01:34.839Z,3.32
2018-03-06T04:04:02.540Z,3.38
2018-03-06T04:06:30.276Z,3.42
2018-03-06T04:08:57.976Z,3.51
2018-03-06T04:11:25.673Z,3.46
2018-03-06T04:13:53.403Z,3.54
2018-03-06T04:16:21.101Z,3.49
2018-03-06T04:18:48.999Z,3.46
2018-03-06T04:21:16.699Z,3.46
2018-03-06T04:23:44.390Z,3.33
2018-03-06T04:26:12.116Z,3.20
2018-03-06T04:28:39.807Z,3.22
2018-03-06T04:31:07.723Z,3.25
2018-03-06T04:33:35.482Z,3.32
2018-03-06T04:36:03.177Z,3.32
2018-03-06T04:38:30.908Z,3.43
2018-03-06T04:40:58.608Z,3.46
2018-03-06T04:43:26.633Z,3.41
2018-03-06T04:45:54.337Z,3.43
2018-03-06T04:48:22.028Z,3.43
2018-03-06T04:50:49.748Z,3.39
2018-03-06T04:53:17.450Z,3.30
2018-03-06T04:55:45.561Z,3.27
2018-03-06T04:58:13.251Z,3.13
2018-03-06T05:00:40.955Z,3.20
2018-03-06T05:03:08.672Z,3.15
2018-03-06T05:05:36.396Z,3.05
2018-03-06T05:08:04.306Z,3.13
2018-03-06T05:10:32.005Z,3.26
2018-03-06T05:12:59.716Z,3.32
2018-03-06T05:15:27.436Z,3.20
2018-03-06T05:17:55.127Z,3.26
2018-03-06T05:20:22.887Z,3.14
2018-03-06T05:22:50.580Z,3.14
2018-03-06T05:25:18.277Z,3.22
2018-03-06T05:27:45.996Z,3.20
2018-03-06T05:30:13.706Z,3.21
2018-03-06T05:32:41.451Z,3.23
2018-03-06T05:35:09.143Z,3.29
2018-03-06T05:37:36.846Z,3.29
2018-03-06T05:40:04.568Z,3.26
2018-03-06T05:42:32.252Z,3.14
2018-03-06T05:44:59.995Z,3.14
2018-03-06T05:47:27.696Z,3.21
2018-03-06T05:49:55.387Z,3.08
2018-03-06T05:52:23.131Z,3.13
2018-03-06T05:54:50.841Z,3.18
2018-03-06T05:57:18.867Z,3.31
2018-03-06T05:59:46.558Z,3.27
2018-03-06T06:02:14.298Z,3.25
2018-03-06T06:04:42.036Z,3.29
2018-03-06T06:07:09.747Z,3.31
2018-03-06T06:09:37.648Z,3.40
2018-03-06T06:12:07.085Z,3.44
2018-03-06T06:14:34.819Z,3.46
2018-03-06T06:17:02.553Z,3.47
2018-03-06T06:19:30.229Z,3.46
2018-03-06T06:21:58.008Z,3.53
2018-03-06T06:24:25.773Z,3.53
2018-03-06T06:26:53.378Z,3.40
2018-03-06T06:29:21.107Z,3.50
2018-03-06T06:31:49.578Z,3.50
2018-03-06T06:34:17.321Z,3.60
2018-03-06T06:36:45.011Z,3.63
2018-03-06T06:39:12.707Z,3.57
2018-03-06T06:41:40.435Z,3.54
2018-03-06T06:44:08.107Z,3.60
2018-03-06T06:46:35.937Z,3.65
2018-03-06T06:49:03.667Z,3.58
2018-03-06T06:51:31.344Z,3.61
2018-03-06T06:53:59.077Z,3.65
2018-03-06T06:56:26.843Z,3.68
2018-03-06T06:58:54.749Z,3.58
2018-03-06T07:01:22.448Z,3.57
2018-03-06T07:03:50.241Z,3.59
2018-03-06T07:06:17.939Z,3.72
2018-03-06T07:08:45.616Z,3.78
2018-03-06T07:11:13.447Z,3.88
2018-03-06T07:13:41.119Z,3.85
2018-03-06T07:16:08.804Z,3.82
2018-03-06T07:18:36.492Z,3.79
2018-03-06T07:21:04.159Z,3.88
2018-03-06T07:23:31.881Z,3.95
2018-03-06T07:26:00.497Z,4.04
2018-03-06T07:28:28.164Z,4.03
2018-03-06T07:30:55.862Z,4.06
2018-03-06T07:33:23.547Z,3.93
2018-03-06T07:35:51.240Z,4.13
2018-03-06T07:38:18.944Z,3.96
2018-03-06T07:40:46.618Z,4.00
2018-03-06T07:43:14.314Z,4.08
2018-03-06T07:45:41.981Z,4.15
2018-03-06T07:48:09.702Z,4.15
2018-03-06T07:50:37.372Z,3.90
2018-03-06T07:53:05.094Z,3.83
2018-03-06T07:55:32.804Z,3.93
2018-03-06T07:58:00.489Z,3.99
2018-03-06T08:00:28.432Z,4.07
2018-03-06T08:02:56.506Z,4.23
2018-03-06T08:05:24.292Z,4.35
2018-03-06T08:07:51.987Z,4.48
2018-03-06T08:10:19.833Z,4.50
2018-03-06T08:12:47.994Z,4.59
2018-03-06T08:15:16.012Z,4.63
2018-03-06T08:17:44.042Z,4.60
2018-03-06T08:20:12.116Z,4.58
2018-03-06T08:22:40.143Z,4.64
2018-03-06T08:25:08.248Z,4.74
2018-03-06T08:27:36.220Z,4.87
2018-03-06T08:30:04.082Z,4.94
2018-03-06T08:32:32.861Z,5.14
2018-03-06T08:35:01.665Z,5.21
2018-03-06T08:37:30.655Z,4.81
2018-03-06T08:39:58.511Z,4.93
2018-03-06T08:42:26.323Z,4.82
2018-03-06T08:44:54.256Z,5.04
2018-03-06T08:47:23.524Z,5.14
2018-03-06T08:49:52.823Z,5.19
2018-03-06T08:52:21.593Z,5.27
2018-03-06T08:54:49.411Z,5.28
2018-03-06T08:57:17.376Z,5.26
2018-03-06T08:59:45.020Z,5.15
2018-03-06T09:02:12.656Z,5.32
2018-03-06T09:04:40.264Z,5.51
2018-03-06T09:07:07.878Z,5.50
2018-03-06T09:09:35.497Z,5.46
2018-03-06T09:12:03.088Z,5.53
2018-03-06T09:14:31.409Z,5.38
2018-03-06T09:17:03.055Z,5.67
2018-03-06T09:19:30.945Z,5.64
2018-03-06T09:21:58.561Z,5.42
2018-03-06T09:24:26.171Z,5.33
2018-03-06T09:26:54.092Z,5.57
2018-03-06T09:29:21.703Z,5.52
2018-03-06T09:31:49.746Z,5.46
2018-03-06T09:34:17.337Z,5.62
2018-03-06T09:36:44.935Z,5.64
2018-03-06T09:39:12.561Z,5.68
2018-03-06T09:41:40.159Z,5.69
2018-03-06T09:44:07.970Z,5.79
2018-03-06T09:46:35.576Z,5.72
2018-03-06T09:49:03.175Z,5.76
2018-03-06T09:51:30.811Z,5.83
2018-03-06T09:53:58.421Z,5.90
2018-03-06T09:56:26.660Z,5.19
2018-03-06T09:58:54.471Z,4.91
2018-03-06T10:01:22.150Z,5.33
2018-03-06T10:03:49.794Z,5.71
2018-03-06T10:06:17.394Z,5.82
2018-03-06T10:08:45.043Z,6.03
2018-03-06T10:11:12.761Z,6.06
2018-03-06T10:13:40.363Z,6.12
2018-03-06T10:16:08.016Z,6.15
2018-03-06T10:18:35.750Z,6.26
2018-03-06T10:21:03.622Z,6.38
2018-03-06T10:23:31.225Z,6.09
2018-03-06T10:25:59.007Z,6.45
2018-03-06T10:28:26.874Z,6.50
2018-03-06T10:30:54.472Z,6.53
2018-03-06T10:33:22.199Z,6.71
2018-03-06T10:35:49.813Z,6.19
2018-03-06T10:38:17.411Z,6.01
2018-03-06T10:40:45.135Z,5.89
2018-03-06T10:43:12.879Z,6.12
2018-03-06T10:45:40.648Z,5.93
2018-03-06T10:48:08.239Z,6.49
2018-03-06T10:50:35.827Z,6.61
2018-03-06T10:53:03.459Z,6.70
2018-03-06T10:55:31.320Z,6.85
2018-03-06T10:57:59.286Z,6.85
2018-03-06T11:00:32.449Z,6.82
2018-03-06T11:03:00.092Z,6.86
2018-03-06T11:05:29.473Z,6.46
2018-03-06T11:08:01.416Z,6.36
2018-03-06T11:10:29.038Z,6.51
2018-03-06T11:12:56.646Z,6.69
2018-03-06T11:15:24.277Z,6.46
2018-03-06T11:17:51.881Z,6.52
2018-03-06T11:20:19.995Z,5.85
2018-03-06T11:22:47.597Z,6.09
2018-03-06T11:25:15.341Z,6.13
2018-03-06T11:27:43.303Z,6.15
2018-03-06T11:30:10.900Z,6.09
2018-03-06T11:32:38.639Z,6.20
2018-03-06T11:35:06.510Z,5.89
2018-03-06T11:37:34.104Z,5.35
2018-03-06T11:40:01.808Z,5.54
2018-03-06T11:42:29.406Z,5.77
2018-03-06T11:44:57.041Z,5.82
2018-03-06T11:47:24.923Z,5.74
2018-03-06T11:49:52.567Z,6.12
2018-03-06T11:52:20.191Z,6.00
2018-03-06T11:54:47.802Z,5.79
2018-03-06T11:57:15.557Z,5.72
2018-03-06T11:59:44.559Z,5.79
2018-03-06T12:02:12.145Z,5.52
2018-03-06T12:04:40.505Z,5.58
2018-03-06T12:07:08.120Z,5.61
2018-03-06T12:09:36.116Z,5.83
2018-03-06T12:12:03.899Z,5.63
2018-03-06T12:14:31.753Z,5.46
2018-03-06T12:16:59.435Z,5.56
2018-03-06T12:19:27.106Z,5.76
2018-03-06T12:21:54.940Z,5.76
2018-03-06T12:24:22.612Z,5.56
2018-03-06T12:26:50.205Z,5.69
2018-03-06T12:29:17.907Z,5.67
2018-03-06T12:31:45.579Z,5.56
2018-03-06T12:34:13.376Z,5.52
2018-03-06T12:36:41.060Z,5.55
2018-03-06T12:39:08.742Z,5.62
2018-03-06T12:41:36.396Z,5.58
2018-03-06T12:44:04.023Z,5.66
2018-03-06T12:46:32.121Z,5.50
2018-03-06T12:48:59.788Z,5.61
2018-03-06T12:51:27.464Z,5.34
2018-03-06T12:53:55.247Z,5.34
2018-03-06T12:56:22.948Z,5.34
2018-03-06T12:58:50.815Z,5.52
2018-03-06T13:01:18.535Z,5.47
2018-03-06T13:03:46.232Z,5.58
2018-03-06T13:06:13.851Z,5.47
2018-03-06T13:08:41.544Z,5.50
2018-03-06T13:11:09.273Z,5.67
2018-03-06T13:13:36.988Z,5.53
2018-03-06T13:16:04.643Z,5.20
2018-03-06T13:18:32.518Z,5.21
2018-03-06T13:21:00.249Z,5.05
2018-03-06T13:23:27.984Z,5.20
2018-03-06T13:25:55.667Z,5.23
2018-03-06T13:28:23.344Z,5.18
2018-03-06T13:30:51.046Z,4.93
2018-03-06T13:33:18.846Z,4.83
2018-03-06T13:35:46.571Z,4.72
2018-03-06T13:38:14.474Z,4.82
2018-03-06T13:40:42.297Z,4.86
2018-03-06T13:43:10.399Z,4.84
2018-03-06T13:45:38.084Z,4.81
2018-03-06T13:48:05.784Z,4.50
2018-03-06T13:50:33.466Z,4.64
2018-03-06T13:53:01.427Z,4.79
2018-03-06T13:55:29.097Z,5.14
2018-03-06T13:57:56.776Z,4.79
2018-03-06T14:00:24.468Z,4.94
2018-03-06T14:02:52.159Z,5.14
2018-03-06T14:05:19.863Z,5.06
2018-03-06T14:07:47.541Z,5.04
2018-03-06T14:10:15.264Z,5.03
2018-03-06T14:12:42.853Z,5.01
2018-03-06T14:15:10.529Z,4.82
2018-03-06T14:17:38.220Z,4.92
2018-03-06T14:20:05.900Z,5.12
2018-03-06T14:22:33.779Z,5.19
2018-03-06T14:25:01.468Z,5.26
2018-03-06T14:27:29.148Z,5.10
2018-03-06T14:29:56.843Z,5.04
2018-03-06T14:32:24.443Z,5.05
2018-03-06T14:34:52.189Z,5.02
2018-03-06T14:37:19.869Z,5.06
2018-03-06T14:39:47.475Z,4.89
2018-03-06T14:42:15.092Z,4.93
2018-03-06T14:44:42.779Z,5.02
2018-03-06T14:47:10.600Z,4.94
2018-03-06T14:49:38.220Z,5.08
2018-03-06T14:52:05.904Z,5.11
2018-03-06T14:54:33.608Z,4.99
2018-03-06T14:57:01.305Z,4.84
2018-03-06T14:59:29.193Z,4.60
2018-03-06T15:01:56.882Z,4.59
2018-03-06T15:04:24.678Z,4.55
2018-03-06T15:06:52.375Z,4.55
2018-03-06T15:09:20.076Z,4.53
2018-03-06T15:11:47.787Z,4.41
2018-03-06T15:14:15.473Z,4.39
2018-03-06T15:16:44.070Z,4.35
2018-03-06T15:19:11.779Z,4.41
2018-03-06T15:21:39.460Z,4.49
2018-03-06T15:24:07.390Z,4.66
2018-03-06T15:26:35.072Z,4.76
2018-03-06T15:29:02.751Z,4.75
2018-03-06T15:31:30.463Z,4.82
2018-03-06T15:33:58.136Z,4.82
2018-03-06T15:36:25.952Z,4.72
2018-03-06T15:38:53.587Z,4.44
2018-03-06T15:41:21.256Z,4.53
2018-03-06T15:43:48.985Z,4.62
2018-03-06T15:46:16.655Z,4.59
2018-03-06T15:48:44.478Z,4.63
2018-03-06T15:51:12.163Z,4.71
2018-03-06T15:53:39.844Z,4.72
2018-03-06T15:56:07.510Z,4.67
2018-03-06T15:58:35.187Z,4.53
2018-03-06T16:01:03.040Z,4.51
2018-03-06T16:03:30.648Z,4.61
2018-03-06T16:05:58.342Z,4.53
2018-03-06T16:08:25.988Z,4.53
2018-03-06T16:10:53.593Z,4.55
2018-03-06T16:13:21.560Z,4.50
2018-03-06T16:15:49.231Z,4.56
2018-03-06T16:18:16.904Z,4.55
2018-03-06T16:20:44.540Z,4.60
2018-03-06T16:23:12.137Z,4.59
2018-03-06T16:25:39.956Z,4.57
2018-03-06T16:28:07.557Z,4.52
2018-03-06T16:30:35.170Z,4.37
2018-03-06T16:33:02.795Z,4.41
2018-03-06T16:35:31.038Z,4.42
2018-03-06T16:38:01.964Z,4.50
2018-03-06T16:40:31.701Z,4.49
2018-03-06T16:43:01.024Z,4.36
2018-03-06T16:45:30.622Z,4.34
2018-03-06T16:48:06.699Z,4.36
2018-03-06T16:50:38.932Z,4.40
2018-03-06T16:53:08.794Z,4.44
2018-03-06T16:55:38.543Z,4.44
2018-03-06T16:58:06.727Z,4.44
2018-03-06T17:00:34.474Z,4.44
2018-03-06T17:03:02.213Z,4.44
2018-03-06T17:05:30.121Z,4.48
2018-03-06T17:07:57.878Z,4.49
2018-03-06T17:10:25.555Z,4.53
2018-03-06T17:12:53.265Z,4.57
2018-03-06T17:15:20.940Z,4.59
2018-03-06T17:17:48.707Z,4.60
2018-03-06T17:20:16.381Z,4.50
2018-03-06T17:22:44.060Z,4.51
2018-03-06T17:25:11.756Z,4.52
2018-03-06T17:27:39.486Z,4.44
2018-03-06T17:30:08.172Z,4.46
2018-03-06T17:32:35.843Z,4.38
2018-03-06T17:35:03.527Z,4.41
2018-03-06T17:37:31.226Z,4.46
2018-03-06T17:39:58.896Z,4.52
2018-03-06T17:42:26.810Z,4.48
2018-03-06T17:44:54.504Z,4.33
2018-03-06T17:47:22.172Z,4.14
2018-03-06T17:49:49.870Z,4.11
2018-03-06T17:52:17.560Z,4.16
2018-03-06T17:54:45.593Z,4.06
2018-03-06T17:57:13.293Z,4.04
2018-03-06T17:59:40.972Z,3.99
2018-03-06T18:02:09.461Z,4.07
2018-03-06T18:04:37.146Z,3.99
2018-03-06T18:07:05.019Z,3.99
2018-03-06T18:09:32.715Z,4.05
2018-03-06T18:12:00.393Z,4.15
2018-03-06T18:14:28.089Z,4.05
2018-03-06T18:16:55.767Z,4.04
2018-03-06T18:19:23.468Z,3.99
2018-03-06T18:21:51.151Z,4.02
2018-03-06T18:24:19.100Z,3.95
2018-03-06T18:26:46.806Z,3.87
2018-03-06T18:29:14.491Z,3.72
2018-03-06T18:31:42.198Z,3.64
2018-03-06T18:34:09.888Z,3.60
2018-03-06T18:36:37.614Z,3.58
2018-03-06T18:39:05.342Z,3.61
2018-03-06T18:41:33.071Z,3.51
2018-03-06T18:44:00.757Z,3.56
2018-03-06T18:46:28.456Z,3.67
2018-03-06T18:48:56.156Z,3.65
2018-03-06T18:51:23.834Z,3.76
2018-03-06T18:53:51.521Z,3.74
2018-03-06T18:56:19.197Z,3.65
2018-03-06T18:58:46.893Z,3.74
2018-03-06T19:04:31.377Z,3.83
2018-03-06T19:07:07.176Z,3.88
2018-03-06T19:09:34.873Z,4.00
2018-03-06T19:12:02.565Z,4.02
2018-03-06T19:14:30.283Z,4.08
2018-03-06T19:16:57.949Z,4.10
2018-03-06T19:19:25.661Z,4.14
2018-03-06T19:21:53.357Z,4.12
2018-03-06T19:24:21.040Z,4.14
2018-03-06T19:26:48.746Z,4.16
2018-03-06T19:29:16.419Z,4.20
2018-03-06T19:31:44.119Z,4.17
2018-03-06T19:34:11.811Z,4.20
2018-03-06T19:36:39.499Z,4.21
2018-03-06T19:39:07.180Z,4.24
2018-03-06T19:41:34.883Z,4.18
2018-03-06T19:44:02.573Z,4.18
2018-03-06T19:46:30.261Z,4.11
2018-03-06T19:48:57.995Z,4.03
2018-03-06T19:51:25.692Z,4.12
2018-03-06T19:53:53.425Z,4.18
2018-03-06T19:56:21.111Z,4.20
2018-03-06T19:58:48.809Z,4.23
2018-03-06T20:01:16.510Z,4.14
2018-03-06T20:03:44.190Z,4.07
2018-03-06T20:06:11.884Z,4.03
2018-03-06T20:08:39.589Z,4.01
2018-03-06T20:11:07.298Z,4.10
2018-03-06T20:13:34.975Z,4.12
2018-03-06T20:16:03.043Z,3.85
2018-03-06T20:18:30.716Z,3.94
2018-03-06T20:20:58.392Z,4.00
2018-03-06T20:23:26.120Z,4.02
2018-03-06T20:25:59.613Z,4.00
2018-03-06T20:28:27.312Z,3.96
2018-03-06T20:31:00.389Z,4.00
2018-03-06T20:33:28.107Z,4.00
2018-03-06T20:35:55.788Z,4.05
2018-03-06T20:38:29.113Z,4.04
2018-03-06T20:40:56.800Z,4.04
2018-03-06T20:43:24.561Z,4.14
2018-03-06T20:45:57.887Z,4.18
2018-03-06T20:48:25.947Z,4.12
2018-03-06T20:50:53.637Z,4.07
2018-03-06T20:53:26.971Z,4.10
2018-03-06T20:55:54.637Z,4.14
2018-03-06T20:58:22.316Z,4.15
2018-03-06T21:00:50.023Z,4.20
2018-03-06T21:03:17.698Z,4.09
2018-03-06T21:05:45.394Z,4.08
2018-03-06T21:08:13.072Z,4.12
2018-03-06T21:10:40.784Z,4.13
2018-03-06T21:13:08.465Z,4.17
2018-03-06T21:15:36.156Z,4.21
2018-03-06T21:18:03.855Z,4.19
2018-03-06T21:20:31.569Z,4.12
2018-03-06T21:22:59.251Z,4.10
2018-03-06T21:25:27.028Z,4.13
2018-03-06T21:27:54.708Z,4.20
2018-03-06T21:30:22.383Z,4.04
2018-03-06T21:32:50.101Z,3.79
2018-03-06T21:35:17.785Z,3.71
2018-03-06T21:37:45.496Z,3.85
2018-03-06T21:40:13.188Z,3.99
2018-03-06T21:42:40.909Z,4.12
2018-03-06T21:45:08.593Z,4.14
2018-03-06T21:47:36.194Z,4.13
2018-03-06T21:50:03.902Z,4.08
2018-03-06T21:52:31.580Z,4.10
2018-03-06T21:54:59.273Z,4.14
2018-03-06T21:57:26.943Z,4.16
2018-03-06T21:59:54.796Z,4.12
2018-03-06T22:02:22.484Z,4.12
2018-03-06T22:04:50.188Z,3.99
2018-03-06T22:07:17.891Z,4.06
2018-03-06T22:09:45.570Z,4.15
2018-03-06T22:12:13.292Z,4.13
2018-03-06T22:14:41.716Z,3.96
2018-03-06T22:17:09.447Z,4.09
2018-03-06T22:19:37.128Z,4.13
2018-03-06T22:22:04.800Z,4.19
2018-03-06T22:24:32.496Z,4.16
2018-03-06T22:27:00.181Z,4.12
2018-03-06T22:29:27.918Z,4.09
2018-03-06T22:31:56.401Z,4.11
2018-03-06T22:34:24.071Z,4.16
2018-03-06T22:36:51.765Z,4.19
2018-03-06T22:39:19.364Z,4.23
2018-03-06T22:41:47.068Z,4.23
2018-03-06T22:44:14.758Z,4.17
2018-03-06T22:46:42.544Z,4.24
2018-03-06T22:49:10.155Z,4.25
2018-03-06T22:51:37.844Z,4.21
2018-03-06T22:54:05.548Z,4.26
2018-03-06T22:56:33.148Z,4.24
2018-03-06T22:59:00.764Z,4.29
2018-03-06T23:01:28.464Z,4.25
2018-03-06T23:03:56.363Z,4.28
2018-03-06T23:06:23.961Z,4.34
2018-03-06T23:08:51.636Z,4.30
2018-03-06T23:11:19.256Z,4.28
2018-03-06T23:13:46.852Z,4.24
2018-03-06T23:16:14.465Z,4.20
2018-03-06T23:18:42.141Z,4.19
2018-03-06T23:21:10.013Z,4.21
2018-03-06T23:23:37.613Z,4.20
2018-03-06T23:26:05.212Z,4.20
2018-03-06T23:28:32.837Z,4.26
2018-03-06T23:31:00.435Z,4.25
2018-03-06T23:33:28.052Z,4.30
2018-03-06T23:35:55.754Z,4.22
2018-03-06T23:38:23.746Z,4.31
2018-03-06T23:40:51.424Z,4.15
2018-03-06T23:43:19.101Z,4.22
2018-03-06T23:45:46.724Z,4.27
2018-03-06T23:48:14.320Z,4.22
2018-03-06T23:50:41.965Z,4.25
2018-03-06T23:53:09.561Z,4.27
2018-03-06T23:55:37.588Z,4.25
2018-03-06T23:58:05.193Z,4.20
